createdAt,value
2022-12-12T00:01:16.681Z,-3.30
2022-12-12T00:03:44.967Z,-3.30
2022-12-12T00:06:13.089Z,-3.40
2022-12-12T00:08:41.118Z,-3.40
2022-12-12T00:11:09.468Z,-2.50
2022-12-12T00:13:39.529Z,-3.30
2022-12-12T00:16:09.383Z,-1.90
2022-12-12T00:18:38.170Z,-3.30
2022-12-12T00:21:09.499Z,-3.30
2022-12-12T00:23:37.540Z,-3.40
2022-12-12T00:26:08.780Z,-3.30
2022-12-12T00:28:38.227Z,-3.30
2022-12-12T00:31:06.703Z,-3.20
2022-12-12T00:33:34.832Z,-3.30
2022-12-12T00:36:02.916Z,-3.30
2022-12-12T00:38:31.028Z,-3.30
2022-12-12T00:41:01.419Z,-3.30
2022-12-12T00:43:29.453Z,-3.30
2022-12-12T00:46:01.097Z,-3.30
2022-12-12T00:48:30.030Z,-3.30
2022-12-12T00:50:58.681Z,-3.30
2022-12-12T00:53:26.773Z,-3.30
2022-12-12T00:55:58.813Z,-3.30
2022-12-12T00:58:27.329Z,-3.30
2022-12-12T01:00:55.612Z,-3.30
2022-12-12T01:03:24.932Z,-3.30
2022-12-12T01:05:52.975Z,-3.30
2022-12-12T01:08:21.052Z,-3.00
2022-12-12T01:10:49.323Z,-3.30
2022-12-12T01:13:17.474Z,-1.70
2022-12-12T01:15:45.565Z,-3.30
2022-12-12T01:18:14.174Z,-3.30
2022-12-12T01:20:43.794Z,-3.30
2022-12-12T01:23:12.117Z,-3.30
2022-12-12T01:25:40.251Z,-3.30
2022-12-12T01:28:08.455Z,-3.30
2022-12-12T01:30:36.777Z,-3.30
2022-12-12T01:33:05.028Z,-3.40
2022-12-12T01:35:36.497Z,-3.40
2022-12-12T01:38:06.340Z,-3.30
2022-12-12T01:40:37.220Z,-3.30
2022-12-12T01:43:07.464Z,-3.30
2022-12-12T01:46:15.398Z,-3.30
2022-12-12T01:48:48.673Z,-3.30
2022-12-12T01:51:20.510Z,-3.30
2022-12-12T01:53:53.332Z,-1.70
2022-12-12T01:56:22.638Z,-3.30
2022-12-12T01:58:54.365Z,-2.60
2022-12-12T02:01:23.277Z,-1.40
2022-12-12T02:03:51.841Z,-3.30
2022-12-12T02:06:23.962Z,-2.60
2022-12-12T02:08:57.870Z,-3.30
2022-12-12T02:11:27.573Z,-3.20
2022-12-12T02:13:55.997Z,-3.30
2022-12-12T02:16:32.537Z,-3.30
2022-12-12T02:19:15.585Z,-3.30
2022-12-12T02:21:48.951Z,-3.30
2022-12-12T02:24:49.845Z,-3.30
2022-12-12T02:27:48.621Z,-3.30
2022-12-12T02:30:24.288Z,-3.30
2022-12-12T02:33:21.462Z,-3.30
2022-12-12T02:36:02.726Z,-3.30
2022-12-12T02:38:38.621Z,-3.30
2022-12-12T02:41:16.803Z,-3.30
2022-12-12T02:43:55.043Z,-3.30
2022-12-12T02:46:29.325Z,-3.30
2022-12-12T02:49:03.028Z,-2.00
2022-12-12T02:51:33.039Z,-3.30
2022-12-12T02:54:01.551Z,-3.30
2022-12-12T02:56:49.096Z,-3.30
2022-12-12T02:59:22.509Z,-3.30
2022-12-12T03:02:33.002Z,-2.10
2022-12-12T03:05:48.882Z,-3.30
2022-12-12T03:08:34.694Z,-3.30
2022-12-12T03:11:07.138Z,-3.30
2022-12-12T03:13:44.347Z,-0.80
2022-12-12T03:16:23.934Z,-3.30
2022-12-12T03:18:58.008Z,-3.30
2022-12-12T03:21:34.404Z,-3.20
2022-12-12T03:24:10.202Z,-3.30
2022-12-12T03:26:43.999Z,-3.30
2022-12-12T03:29:16.187Z,-3.30
2022-12-12T03:31:49.713Z,-3.30
2022-12-12T03:34:21.218Z,-3.30
2022-12-12T03:36:53.357Z,-3.30
2022-12-12T03:39:28.040Z,-3.30
2022-12-12T03:42:00.822Z,-3.30
2022-12-12T03:44:38.141Z,-3.20
2022-12-12T03:47:14.404Z,-3.20
2022-12-12T03:49:48.702Z,-3.20
2022-12-12T03:52:25.926Z,-3.30
2022-12-12T03:54:57.757Z,-3.30
2022-12-12T03:57:32.611Z,-3.30
2022-12-12T04:00:05.977Z,-3.30
2022-12-12T04:02:40.471Z,-3.30
2022-12-12T04:05:16.387Z,-3.30
2022-12-12T04:07:50.850Z,-3.30
2022-12-12T04:10:37.238Z,-3.30
2022-12-12T04:13:33.730Z,-3.20
2022-12-12T04:16:27.245Z,-3.40
2022-12-12T04:19:03.070Z,-3.30
2022-12-12T04:21:54.953Z,-3.30
2022-12-12T04:24:31.618Z,-3.30
2022-12-12T04:27:03.591Z,-3.30
2022-12-12T04:29:42.123Z,-3.30
2022-12-12T04:32:19.266Z,-3.30
2022-12-12T04:34:52.404Z,-3.30
2022-12-12T04:37:23.741Z,-2.00
2022-12-12T04:39:57.753Z,-3.40
2022-12-12T04:42:29.735Z,-3.40
2022-12-12T04:45:04.841Z,-3.40
2022-12-12T04:47:34.854Z,-3.40
2022-12-12T04:50:04.435Z,-3.40
2022-12-12T04:52:35.282Z,-3.50
2022-12-12T04:55:07.142Z,-3.40
2022-12-12T04:57:40.055Z,-3.40
2022-12-12T05:00:10.094Z,-3.40
2022-12-12T05:02:44.674Z,-3.50
2022-12-12T05:05:18.019Z,-3.40
2022-12-12T05:07:51.782Z,-3.50
2022-12-12T05:10:21.661Z,-3.50
2022-12-12T05:12:51.733Z,-3.50
2022-12-12T05:15:21.520Z,-3.40
2022-12-12T05:17:53.367Z,-3.40
2022-12-12T05:20:21.725Z,-3.50
2022-12-12T05:22:49.761Z,-5.40
2022-12-12T05:25:18.025Z,-3.50
2022-12-12T05:27:47.544Z,-4.70
2022-12-12T05:30:15.712Z,-1.40
2022-12-12T05:32:43.839Z,-2.10
2022-12-12T05:35:12.662Z,-3.50
2022-12-12T05:37:41.125Z,-1.70
2022-12-12T05:40:10.690Z,-3.50
2022-12-12T05:42:39.145Z,-3.60
2022-12-12T05:45:10.305Z,-3.50
2022-12-12T05:47:39.463Z,-3.50
2022-12-12T05:50:08.644Z,-1.70
2022-12-12T05:52:36.653Z,-3.50
2022-12-12T05:55:05.708Z,-3.50
2022-12-12T05:57:33.835Z,-3.50
2022-12-12T06:00:01.838Z,-1.50
2022-12-12T06:02:31.233Z,-3.40
2022-12-12T06:04:59.237Z,-3.40
2022-12-12T06:07:27.394Z,-3.40
2022-12-12T06:09:58.592Z,-2.10
2022-12-12T06:12:26.843Z,-3.40
2022-12-12T06:14:55.677Z,-3.30
2022-12-12T06:17:27.116Z,-3.30
2022-12-12T06:19:59.233Z,-3.30
2022-12-12T06:22:28.482Z,-3.30
2022-12-12T06:24:56.594Z,-2.40
2022-12-12T06:27:25.245Z,-3.30
2022-12-12T06:29:53.413Z,-3.30
2022-12-12T06:32:21.667Z,-3.30
2022-12-12T06:34:49.792Z,-3.30
2022-12-12T06:37:20.020Z,-3.20
2022-12-12T06:39:48.470Z,-3.20
2022-12-12T06:42:16.981Z,-3.20
2022-12-12T06:44:45.607Z,-3.30
2022-12-12T06:47:13.746Z,-3.30
2022-12-12T06:49:41.779Z,-3.20
2022-12-12T06:52:09.893Z,-3.30
2022-12-12T06:54:39.347Z,-3.30
2022-12-12T06:57:07.345Z,-3.30
2022-12-12T06:59:35.439Z,-3.40
2022-12-12T07:02:03.689Z,-3.40
2022-12-12T07:04:31.734Z,-3.40
2022-12-12T07:07:01.015Z,-3.30
2022-12-12T07:09:29.809Z,-3.30
2022-12-12T07:11:59.344Z,-3.30
2022-12-12T07:14:27.416Z,-3.30
2022-12-12T07:16:55.799Z,-3.30
2022-12-12T07:19:23.897Z,-3.30
2022-12-12T07:21:51.943Z,-3.40
2022-12-12T07:24:20.392Z,-3.30
2022-12-12T07:26:48.452Z,-1.70
2022-12-12T07:29:17.838Z,-3.30
2022-12-12T07:31:45.875Z,-3.40
2022-12-12T07:34:14.045Z,-3.40
2022-12-12T07:36:42.349Z,-3.40
2022-12-12T07:39:10.541Z,-3.50
2022-12-12T07:41:40.957Z,-3.50
2022-12-12T07:44:09.319Z,-2.00
2022-12-12T07:46:38.985Z,-1.50
2022-12-12T07:49:07.111Z,-3.40
2022-12-12T07:51:35.102Z,-2.00
2022-12-12T07:54:04.040Z,-3.40
2022-12-12T07:56:32.193Z,-1.10
2022-12-12T08:01:29.783Z,-3.20
2022-12-12T08:03:59.397Z,-3.20
2022-12-12T08:06:27.514Z,-1.00
2022-12-12T08:08:55.633Z,-4.20
2022-12-12T08:11:25.863Z,-3.20
2022-12-12T08:13:54.886Z,-1.30
2022-12-12T08:16:24.477Z,-1.90
2022-12-12T08:18:54.588Z,-3.20
2022-12-12T08:21:26.048Z,-3.20
2022-12-12T08:23:57.773Z,-3.20
2022-12-12T08:26:26.246Z,-3.10
2022-12-12T08:31:23.416Z,-3.10
2022-12-12T08:33:51.675Z,-3.00
2022-12-12T08:36:22.008Z,-3.00
2022-12-12T08:38:51.875Z,-3.00
2022-12-12T08:41:20.756Z,-3.00
2022-12-12T08:43:49.801Z,-0.60
2022-12-12T08:46:19.854Z,-1.00
2022-12-12T08:48:53.383Z,-2.30
2022-12-12T08:51:22.097Z,-2.80
2022-12-12T08:53:53.840Z,-2.70
2022-12-12T08:56:24.052Z,-2.50
2022-12-12T08:58:52.285Z,-0.40
2022-12-12T09:01:22.797Z,-0.90
2022-12-12T09:03:52.983Z,-2.10
2022-12-12T09:06:21.881Z,-2.00
2022-12-12T09:08:51.385Z,-1.80
2022-12-12T09:11:20.186Z,-0.10
2022-12-12T09:13:48.921Z,-1.20
2022-12-12T09:16:17.074Z,-0.90
2022-12-12T09:18:48.970Z,-0.80
2022-12-12T09:21:18.047Z,-0.60
2022-12-12T09:23:46.268Z,-0.40
2022-12-12T09:26:17.976Z,-0.20
2022-12-12T09:28:46.106Z,0.60
2022-12-12T09:31:14.829Z,0.80
2022-12-12T09:33:43.392Z,-0.60
2022-12-12T09:36:13.737Z,-0.40
2022-12-12T09:38:42.213Z,-0.90
2022-12-12T09:41:18.482Z,-0.50
2022-12-12T09:43:52.585Z,-1.40
2022-12-12T09:46:30.981Z,-1.40
2022-12-12T09:49:07.867Z,-0.40
2022-12-12T09:51:37.467Z,-1.80
2022-12-12T09:54:06.196Z,-1.80
2022-12-12T09:56:42.891Z,-1.90
2022-12-12T09:59:16.884Z,-1.50
2022-12-12T10:01:57.317Z,-1.50
2022-12-12T10:04:34.379Z,-1.40
2022-12-12T10:07:09.469Z,-1.10
2022-12-12T10:09:54.784Z,-0.80
2022-12-12T10:12:24.751Z,-0.90
2022-12-12T10:14:56.151Z,0.10
2022-12-12T10:17:28.765Z,-0.80
2022-12-12T10:20:00.312Z,0.50
2022-12-12T10:22:36.850Z,0.00
2022-12-12T10:25:12.569Z,-1.00
2022-12-12T10:27:42.023Z,-0.80
2022-12-12T10:30:18.059Z,-0.50
2022-12-12T10:32:57.272Z,-0.70
2022-12-12T10:35:35.075Z,0.50
2022-12-12T10:38:18.551Z,-1.50
2022-12-12T10:40:55.898Z,-1.70
2022-12-12T10:43:30.515Z,-1.40
2022-12-12T10:46:23.946Z,-1.90
2022-12-12T10:48:53.026Z,-0.20
2022-12-12T10:51:23.853Z,-1.50
2022-12-12T10:53:51.885Z,-1.40
2022-12-12T10:56:24.964Z,-1.60
2022-12-12T10:58:57.309Z,-1.60
2022-12-12T11:01:52.797Z,-1.20
2022-12-12T11:04:17.561Z,-1.20
2022-12-12T11:06:49.133Z,-1.10
2022-12-12T11:09:20.826Z,0.60
2022-12-12T11:11:59.279Z,0.50
2022-12-12T11:14:35.582Z,0.80
2022-12-12T11:17:04.187Z,-0.50
2022-12-12T11:19:39.260Z,-0.90
2022-12-12T11:22:07.469Z,0.00
2022-12-12T11:24:45.130Z,-1.50
2022-12-12T11:27:22.003Z,-1.60
2022-12-12T11:29:54.162Z,-1.80
2022-12-12T11:32:25.460Z,-1.90
2022-12-12T11:34:56.439Z,-1.90
2022-12-12T11:37:27.794Z,-1.80
2022-12-12T11:39:56.702Z,-1.70
2022-12-12T11:42:27.679Z,-1.70
2022-12-12T11:45:03.638Z,-1.50
2022-12-12T11:47:38.577Z,-1.30
2022-12-12T11:50:19.277Z,-0.90
2022-12-12T11:55:18.427Z,-0.30
2022-12-12T11:58:08.129Z,-0.20
2022-12-12T12:00:46.435Z,-0.10
2022-12-12T12:03:47.465Z,1.00
2022-12-12T12:06:31.540Z,1.80
2022-12-12T12:09:33.958Z,-0.40
2022-12-12T12:12:08.964Z,-0.20
2022-12-12T12:15:03.389Z,-0.50
2022-12-12T12:17:57.950Z,-0.30
2022-12-12T12:20:39.215Z,0.00
2022-12-12T12:23:18.579Z,0.30
2022-12-12T12:25:56.024Z,0.70
2022-12-12T12:29:04.508Z,1.00
2022-12-12T12:31:44.665Z,1.10
2022-12-12T12:35:03.799Z,0.80
2022-12-12T12:37:44.474Z,0.80
2022-12-12T12:40:32.561Z,0.30
2022-12-12T12:43:25.206Z,-0.10
2022-12-12T12:46:00.063Z,-0.20
2022-12-12T12:48:32.492Z,-0.30
2022-12-12T12:51:37.106Z,-0.30
2022-12-12T12:54:08.094Z,-0.10
2022-12-12T12:56:43.938Z,1.00
2022-12-12T12:59:18.463Z,1.40
2022-12-12T13:01:48.459Z,1.30
2022-12-12T13:04:21.556Z,1.20
2022-12-12T13:06:58.037Z,1.50
2022-12-12T13:09:33.434Z,0.90
2022-12-12T13:12:06.093Z,1.10
2022-12-12T13:14:42.475Z,1.60
2022-12-12T13:17:18.290Z,-1.00
2022-12-12T13:19:50.407Z,0.60
2022-12-12T13:22:30.612Z,0.40
2022-12-12T13:25:04.252Z,-1.20
2022-12-12T13:27:36.596Z,-1.20
2022-12-12T13:30:11.444Z,0.50
2022-12-12T13:33:13.145Z,-1.10
2022-12-12T13:35:46.067Z,-1.00
2022-12-12T13:38:23.297Z,-1.00
2022-12-12T13:40:58.349Z,-0.30
2022-12-12T13:43:41.321Z,-0.40
2022-12-12T13:46:37.712Z,1.40
2022-12-12T13:49:40.940Z,-0.80
2022-12-12T13:52:30.365Z,-1.30
2022-12-12T13:55:24.779Z,-1.60
2022-12-12T13:58:17.244Z,-1.70
2022-12-12T14:00:45.543Z,-1.80
2022-12-12T14:03:31.371Z,-2.00
2022-12-12T14:06:11.941Z,-0.30
2022-12-12T14:08:49.690Z,-2.00
2022-12-12T14:11:29.640Z,-2.20
2022-12-12T14:14:17.144Z,-2.40
2022-12-12T14:16:54.654Z,-2.40
2022-12-12T14:19:29.348Z,-1.40
2022-12-12T14:21:58.185Z,-1.20
2022-12-12T14:24:55.860Z,-2.50
2022-12-12T14:28:01.964Z,-2.10
2022-12-12T14:30:44.641Z,-2.80
2022-12-12T14:33:51.570Z,-2.90
2022-12-12T14:36:43.553Z,-3.00
2022-12-12T14:39:19.943Z,-3.10
2022-12-12T14:41:49.078Z,-3.20
2022-12-12T14:44:36.616Z,-3.30
2022-12-12T14:47:19.411Z,-3.40
2022-12-12T14:49:48.367Z,-3.50
2022-12-12T14:52:20.015Z,-3.50
2022-12-12T14:54:50.597Z,-3.60
2022-12-12T14:57:22.769Z,-2.90
2022-12-12T14:59:52.407Z,-2.70
2022-12-12T15:02:26.004Z,-3.80
2022-12-12T15:05:04.489Z,-2.00
2022-12-12T15:07:34.496Z,-3.90
2022-12-12T15:10:02.907Z,-4.00
2022-12-12T15:12:35.426Z,-4.10
2022-12-12T15:15:05.156Z,-4.10
2022-12-12T15:17:38.043Z,-4.20
2022-12-12T15:20:09.903Z,-4.20
2022-12-12T15:22:39.546Z,-4.30
2022-12-12T15:25:17.313Z,-4.40
2022-12-12T15:27:54.984Z,-4.50
2022-12-12T15:30:28.925Z,-4.60
2022-12-12T15:33:00.240Z,-4.70
2022-12-12T15:35:29.389Z,-4.70
2022-12-12T15:37:58.750Z,-4.80
2022-12-12T15:40:30.807Z,-4.80
2022-12-12T15:43:01.975Z,-4.70
2022-12-12T15:45:35.508Z,-4.80
2022-12-12T15:48:07.043Z,-4.90
2022-12-12T15:50:50.699Z,-5.20
2022-12-12T15:53:23.750Z,-4.70
2022-12-12T15:55:58.496Z,-3.10
2022-12-12T15:58:30.421Z,-3.10
2022-12-12T16:01:21.927Z,-3.50
2022-12-12T16:04:02.631Z,-3.30
2022-12-12T16:06:33.394Z,-5.50
2022-12-12T16:09:04.060Z,-3.30
2022-12-12T16:11:45.542Z,-5.80
2022-12-12T16:14:46.992Z,-5.70
2022-12-12T16:17:21.242Z,-5.80
2022-12-12T16:19:55.920Z,-4.10
2022-12-12T16:22:35.693Z,-3.70
2022-12-12T16:25:22.927Z,-6.00
2022-12-12T16:28:02.087Z,-6.20
2022-12-12T16:30:33.906Z,-6.30
2022-12-12T16:33:12.203Z,-3.90
2022-12-12T16:35:41.791Z,-6.20
2022-12-12T16:38:15.439Z,-6.40
2022-12-12T16:43:14.792Z,-6.20
2022-12-12T16:45:43.302Z,-6.00
2022-12-12T16:48:15.914Z,-4.70
2022-12-12T16:50:46.116Z,-6.20
2022-12-12T16:53:14.243Z,-6.40
2022-12-12T16:55:45.630Z,-6.40
2022-12-12T16:58:13.888Z,-6.40
2022-12-12T17:00:42.275Z,-6.40
2022-12-12T17:03:14.150Z,-5.20
2022-12-12T17:05:43.070Z,-6.30
2022-12-12T17:08:13.049Z,-6.60
2022-12-12T17:10:41.171Z,-6.60
2022-12-12T17:13:15.259Z,-6.00
2022-12-12T17:15:43.500Z,-4.90
2022-12-12T17:18:11.641Z,-6.90
2022-12-12T17:20:40.127Z,-6.90
2022-12-12T17:26:03.183Z,-6.90
2022-12-12T17:28:33.612Z,-6.80
2022-12-12T17:31:02.363Z,-7.00
2022-12-12T17:33:32.550Z,-7.00
2022-12-12T17:36:02.220Z,-7.10
2022-12-12T17:38:31.426Z,-7.30
2022-12-12T17:41:04.987Z,-7.30
2022-12-12T17:43:33.306Z,-5.90
2022-12-12T17:46:03.058Z,-7.40
2022-12-12T17:48:32.426Z,-7.40
2022-12-12T17:51:01.903Z,-7.40
2022-12-12T17:53:32.581Z,-7.40
2022-12-12T17:56:07.700Z,-7.40
2022-12-12T17:58:36.999Z,-7.00
2022-12-12T18:01:11.464Z,-7.50
2022-12-12T18:03:39.754Z,-7.60
2022-12-12T18:06:08.440Z,-7.50
2022-12-12T18:08:36.728Z,-7.20
2022-12-12T18:11:09.285Z,-7.60
2022-12-12T18:13:38.791Z,-7.60
2022-12-12T18:16:08.896Z,-7.60
2022-12-12T18:18:37.239Z,-7.60
2022-12-12T18:21:05.929Z,-7.70
2022-12-12T18:23:34.724Z,-7.60
2022-12-12T18:26:08.935Z,-7.50
2022-12-12T18:28:37.174Z,-7.50
2022-12-12T18:31:05.649Z,-7.60
2022-12-12T18:33:34.101Z,-7.30
2022-12-12T18:36:03.979Z,-6.20
2022-12-12T18:38:32.941Z,-7.80
2022-12-12T18:41:01.051Z,-7.80
2022-12-12T18:43:31.933Z,-7.90
2022-12-12T18:46:04.148Z,-7.90
2022-12-12T18:48:33.165Z,-7.90
2022-12-12T18:51:06.898Z,-7.90
2022-12-12T18:53:35.391Z,-8.00
2022-12-12T18:56:06.967Z,-8.00
2022-12-12T18:58:37.841Z,-8.10
2022-12-12T19:01:07.055Z,-8.00
2022-12-12T19:03:35.813Z,-6.60
2022-12-12T19:06:05.874Z,-8.00
2022-12-12T19:08:34.358Z,-7.40
2022-12-12T19:11:03.081Z,-9.50
2022-12-12T19:13:32.026Z,-8.10
2022-12-12T19:16:06.296Z,-8.10
2022-12-12T19:18:34.702Z,-8.20
2022-12-12T19:21:05.922Z,-9.30
2022-12-12T19:23:34.217Z,-6.70
2022-12-12T19:26:05.541Z,-8.50
2022-12-12T19:28:34.175Z,-8.30
2022-12-12T19:31:06.413Z,-8.40
2022-12-12T19:33:36.161Z,-8.50
2022-12-12T19:36:11.036Z,-8.50
2022-12-12T19:38:39.519Z,-8.10
2022-12-12T19:41:08.833Z,-8.60
2022-12-12T19:43:37.286Z,-8.60
2022-12-12T19:46:07.209Z,-8.50
2022-12-12T19:48:36.813Z,-8.50
2022-12-12T19:51:07.010Z,-8.50
2022-12-12T19:53:38.185Z,-8.50
2022-12-12T19:56:06.845Z,-8.60
2022-12-12T19:58:38.593Z,-8.60
2022-12-12T20:01:08.961Z,-8.60
2022-12-12T20:03:39.122Z,-8.60
2022-12-12T20:06:09.869Z,-8.60
2022-12-12T20:08:39.136Z,-8.60
2022-12-12T20:11:09.758Z,-8.70
2022-12-12T20:13:38.958Z,-8.80
2022-12-12T20:16:09.161Z,-8.80
2022-12-12T20:18:38.954Z,-8.90
2022-12-12T20:21:08.214Z,-8.90
2022-12-12T20:23:46.771Z,-9.00
2022-12-12T20:26:17.046Z,-9.00
2022-12-12T20:28:45.223Z,-9.00
2022-12-12T20:31:17.016Z,-9.00
2022-12-12T20:33:47.473Z,-8.90
2022-12-12T20:36:17.084Z,-9.00
2022-12-12T20:38:45.823Z,-9.10
2022-12-12T20:41:15.535Z,-9.10
2022-12-12T20:43:44.289Z,-9.20
2022-12-12T20:46:14.052Z,-9.20
2022-12-12T20:48:42.772Z,-9.20
2022-12-12T20:51:45.581Z,-9.30
2022-12-12T20:54:04.096Z,-9.20
2022-12-12T20:56:32.411Z,-9.20
2022-12-12T20:59:02.929Z,-9.30
2022-12-12T21:01:32.908Z,-9.30
2022-12-12T21:04:02.005Z,-9.20
2022-12-12T21:06:33.355Z,-9.20
2022-12-12T21:09:03.275Z,-9.20
2022-12-12T21:11:32.258Z,-9.30
2022-12-12T21:14:00.502Z,-9.40
2022-12-12T21:16:31.121Z,-9.50
2022-12-12T21:19:01.699Z,-9.50
2022-12-12T21:21:31.797Z,-9.50
2022-12-12T21:23:59.976Z,-9.60
2022-12-12T21:26:30.927Z,-8.50
2022-12-12T21:28:59.905Z,-9.60
2022-12-12T21:31:29.939Z,-8.60
2022-12-12T21:33:58.394Z,-9.60
2022-12-12T21:36:28.349Z,-9.60
2022-12-12T21:38:59.530Z,-9.60
2022-12-12T21:41:28.385Z,-9.60
2022-12-12T21:43:59.405Z,-9.60
2022-12-12T21:46:29.020Z,-9.70
2022-12-12T21:49:14.790Z,-9.70
2022-12-12T21:51:43.636Z,-9.70
2022-12-12T21:54:15.634Z,-9.60
2022-12-12T21:56:44.386Z,-9.60
2022-12-12T21:59:13.448Z,-9.60
2022-12-12T22:01:43.478Z,-9.60
2022-12-12T22:04:13.917Z,-9.60
2022-12-12T22:06:42.238Z,-9.70
2022-12-12T22:09:13.008Z,-9.70
2022-12-12T22:11:48.409Z,-9.70
2022-12-12T22:14:18.777Z,-9.70
2022-12-12T22:16:46.937Z,-9.80
2022-12-12T22:19:16.947Z,-9.80
2022-12-12T22:21:46.977Z,-9.80
2022-12-12T22:24:17.121Z,-9.80
2022-12-12T22:26:47.454Z,-9.80
2022-12-12T22:29:17.396Z,-9.80
2022-12-12T22:31:46.215Z,-9.70
2022-12-12T22:34:17.251Z,-9.70
2022-12-12T22:36:47.052Z,-9.70
2022-12-12T22:39:18.633Z,-9.70
2022-12-12T22:41:47.302Z,-9.80
2022-12-12T22:44:16.889Z,-9.80
2022-12-12T22:46:46.476Z,-9.80
2022-12-12T22:49:16.261Z,-9.80
2022-12-12T22:51:45.140Z,-9.90
2022-12-12T22:54:13.867Z,-9.90
2022-12-12T22:56:43.885Z,-9.90
2022-12-12T22:59:13.996Z,-9.90
2022-12-12T23:01:43.156Z,-9.90
2022-12-12T23:04:13.247Z,-9.70
2022-12-12T23:06:41.654Z,-9.70
2022-12-12T23:09:14.228Z,-11.00
2022-12-12T23:11:44.831Z,-9.80
2022-12-12T23:14:15.347Z,-9.90
2022-12-12T23:16:44.085Z,-10.10
2022-12-12T23:19:13.967Z,-10.10
2022-12-12T23:21:42.310Z,-10.20
2022-12-12T23:24:10.508Z,-10.20
2022-12-12T23:26:39.025Z,-10.20
2022-12-12T23:29:10.349Z,-10.20
2022-12-12T23:31:40.003Z,-10.20
2022-12-12T23:34:10.592Z,-10.10
2022-12-12T23:36:39.067Z,-10.00
2022-12-12T23:39:09.151Z,-9.90
2022-12-12T23:41:37.378Z,-9.80
2022-12-12T23:44:06.388Z,-9.70
2022-12-12T23:46:37.231Z,-9.60
2022-12-12T23:49:07.891Z,-9.50
2022-12-12T23:51:38.823Z,-9.20
2022-12-12T23:54:10.166Z,-9.30
2022-12-12T23:56:38.946Z,-8.90
2022-12-12T23:59:07.171Z,-8.70
